sensor_id;sensor_type;location;lat;lon;timestamp;temperature;humidity
13470;DHT22;6807;48.682;9.032;2022-10-16T00:01:15;14.40;99.90
13470;DHT22;6807;48.682;9.032;2022-10-16T00:03:43;14.30;99.90
13470;DHT22;6807;48.682;9.032;2022-10-16T00:06:11;14.30;99.90
13470;DHT22;6807;48.682;9.032;2022-10-16T00:08:39;14.40;99.90
13470;DHT22;6807;48.682;9.032;2022-10-16T00:11:07;14.30;99.90
13470;DHT22;6807;48.682;9.032;2022-10-16T00:13:37;14.40;99.90
13470;DHT22;6807;48.682;9.032;2022-10-16T00:16:05;14.40;99.90
13470;DHT22;6807;48.682;9.032;2022-10-16T00:18:32;14.30;99.90
13470;DHT22;6807;48.682;9.032;2022-10-16T00:21:02;14.30;99.90
13470;DHT22;6807;48.682;9.032;2022-10-16T00:23:29;14.20;99.90
13470;DHT22;6807;48.682;9.032;2022-10-16T00:25:57;14.20;99.90
13470;DHT22;6807;48.682;9.032;2022-10-16T00:28:24;14.20;99.90
13470;DHT22;6807;48.682;9.032;2022-10-16T00:30:53;14.30;99.90
13470;DHT22;6807;48.682;9.032;2022-10-16T00:33:20;14.40;99.90
13470;DHT22;6807;48.682;9.032;2022-10-16T00:35:47;14.30;99.90
13470;DHT22;6807;48.682;9.032;2022-10-16T00:38:14;14.30;99.90
13470;DHT22;6807;48.682;9.032;2022-10-16T00:40:40;14.40;99.90
13470;DHT22;6807;48.682;9.032;2022-10-16T00:43:12;14.30;99.90
13470;DHT22;6807;48.682;9.032;2022-10-16T00:45:41;14.40;99.90
13470;DHT22;6807;48.682;9.032;2022-10-16T00:48:13;14.50;99.90
13470;DHT22;6807;48.682;9.032;2022-10-16T00:50:41;14.40;99.90
13470;DHT22;6807;48.682;9.032;2022-10-16T00:53:10;14.40;99.90
13470;DHT22;6807;48.682;9.032;2022-10-16T00:55:37;14.30;99.90
13470;DHT22;6807;48.682;9.032;2022-10-16T00:58:04;14.30;99.90
13470;DHT22;6807;48.682;9.032;2022-10-16T01:00:31;14.30;99.90
13470;DHT22;6807;48.682;9.032;2022-10-16T01:03:00;14.10;99.90
13470;DHT22;6807;48.682;9.032;2022-10-16T01:05:33;14.20;99.90
13470;DHT22;6807;48.682;9.032;2022-10-16T01:08:07;14.20;99.90
13470;DHT22;6807;48.682;9.032;2022-10-16T01:10:39;14.10;99.90
13470;DHT22;6807;48.682;9.032;2022-10-16T01:13:09;14.10;99.90
13470;DHT22;6807;48.682;9.032;2022-10-16T01:15:40;14.00;99.90
13470;DHT22;6807;48.682;9.032;2022-10-16T01:18:11;14.00;99.90
13470;DHT22;6807;48.682;9.032;2022-10-16T01:20:46;13.90;99.90
13470;DHT22;6807;48.682;9.032;2022-10-16T01:23:27;13.90;99.90
13470;DHT22;6807;48.682;9.032;2022-10-16T01:26:13;13.80;99.90
13470;DHT22;6807;48.682;9.032;2022-10-16T01:28:47;13.80;99.90
13470;DHT22;6807;48.682;9.032;2022-10-16T01:31:18;13.70;99.90
13470;DHT22;6807;48.682;9.032;2022-10-16T01:33:50;13.70;99.90
13470;DHT22;6807;48.682;9.032;2022-10-16T01:36:21;13.70;99.90
13470;DHT22;6807;48.682;9.032;2022-10-16T01:38:52;13.60;99.90
13470;DHT22;6807;48.682;9.032;2022-10-16T01:41:24;13.60;99.90
13470;DHT22;6807;48.682;9.032;2022-10-16T01:43:57;13.60;99.90
13470;DHT22;6807;48.682;9.032;2022-10-16T01:46:28;13.70;99.90
13470;DHT22;6807;48.682;9.032;2022-10-16T01:48:57;13.60;99.90
13470;DHT22;6807;48.682;9.032;2022-10-16T01:51:26;13.60;99.90
13470;DHT22;6807;48.682;9.032;2022-10-16T01:53:57;13.60;99.90
13470;DHT22;6807;48.682;9.032;2022-10-16T01:56:25;13.70;99.90
13470;DHT22;6807;48.682;9.032;2022-10-16T01:58:56;13.70;99.90
13470;DHT22;6807;48.682;9.032;2022-10-16T02:01:26;13.80;99.90
13470;DHT22;6807;48.682;9.032;2022-10-16T02:03:58;13.80;99.90
13470;DHT22;6807;48.682;9.032;2022-10-16T02:06:25;14.00;99.90
13470;DHT22;6807;48.682;9.032;2022-10-16T02:08:51;14.20;99.90
13470;DHT22;6807;48.682;9.032;2022-10-16T02:11:19;13.90;99.90
13470;DHT22;6807;48.682;9.032;2022-10-16T02:13:49;14.30;99.90
13470;DHT22;6807;48.682;9.032;2022-10-16T02:16:19;14.40;99.90
13470;DHT22;6807;48.682;9.032;2022-10-16T02:18:46;14.50;99.90
13470;DHT22;6807;48.682;9.032;2022-10-16T02:21:18;14.50;99.90
13470;DHT22;6807;48.682;9.032;2022-10-16T02:23:51;14.50;99.90
13470;DHT22;6807;48.682;9.032;2022-10-16T02:26:28;14.60;99.90
13470;DHT22;6807;48.682;9.032;2022-10-16T02:29:00;14.60;99.90
13470;DHT22;6807;48.682;9.032;2022-10-16T02:31:33;14.60;99.90
13470;DHT22;6807;48.682;9.032;2022-10-16T02:34:03;14.60;99.90
13470;DHT22;6807;48.682;9.032;2022-10-16T02:36:31;14.50;99.90
13470;DHT22;6807;48.682;9.032;2022-10-16T02:38:59;14.50;99.90
13470;DHT22;6807;48.682;9.032;2022-10-16T02:41:27;14.50;99.90
13470;DHT22;6807;48.682;9.032;2022-10-16T02:43:54;14.50;99.90
13470;DHT22;6807;48.682;9.032;2022-10-16T02:46:21;14.50;99.90
13470;DHT22;6807;48.682;9.032;2022-10-16T02:48:50;14.50;99.90
13470;DHT22;6807;48.682;9.032;2022-10-16T02:51:16;14.40;99.90
13470;DHT22;6807;48.682;9.032;2022-10-16T02:53:43;14.20;99.90
13470;DHT22;6807;48.682;9.032;2022-10-16T02:56:10;14.20;99.90
13470;DHT22;6807;48.682;9.032;2022-10-16T02:58:37;14.30;99.90
13470;DHT22;6807;48.682;9.032;2022-10-16T03:01:04;14.20;99.90
13470;DHT22;6807;48.682;9.032;2022-10-16T03:03:31;14.10;99.90
13470;DHT22;6807;48.682;9.032;2022-10-16T03:05:59;14.10;99.90
13470;DHT22;6807;48.682;9.032;2022-10-16T03:08:27;14.20;99.90
13470;DHT22;6807;48.682;9.032;2022-10-16T03:10:55;14.10;99.90
13470;DHT22;6807;48.682;9.032;2022-10-16T03:13:21;14.10;99.90
13470;DHT22;6807;48.682;9.032;2022-10-16T03:15:50;14.10;99.90
13470;DHT22;6807;48.682;9.032;2022-10-16T03:18:17;14.10;99.90
13470;DHT22;6807;48.682;9.032;2022-10-16T03:20:44;14.10;99.90
13470;DHT22;6807;48.682;9.032;2022-10-16T03:23:12;14.00;99.90
13470;DHT22;6807;48.682;9.032;2022-10-16T03:25:39;13.90;99.90
13470;DHT22;6807;48.682;9.032;2022-10-16T03:28:06;13.90;99.90
13470;DHT22;6807;48.682;9.032;2022-10-16T03:30:33;13.90;99.90
13470;DHT22;6807;48.682;9.032;2022-10-16T03:33:01;13.80;99.90
13470;DHT22;6807;48.682;9.032;2022-10-16T03:35:28;13.90;99.90
13470;DHT22;6807;48.682;9.032;2022-10-16T03:37:55;13.80;99.90
13470;DHT22;6807;48.682;9.032;2022-10-16T03:40:23;13.70;99.90
13470;DHT22;6807;48.682;9.032;2022-10-16T03:42:50;13.60;99.90
13470;DHT22;6807;48.682;9.032;2022-10-16T03:45:17;13.60;99.90
13470;DHT22;6807;48.682;9.032;2022-10-16T03:47:44;13.50;99.90
13470;DHT22;6807;48.682;9.032;2022-10-16T03:50:11;13.50;99.90
13470;DHT22;6807;48.682;9.032;2022-10-16T03:52:38;13.40;99.90
13470;DHT22;6807;48.682;9.032;2022-10-16T03:55:05;13.40;99.90
13470;DHT22;6807;48.682;9.032;2022-10-16T03:57:33;13.40;99.90
13470;DHT22;6807;48.682;9.032;2022-10-16T04:00:00;13.50;99.90
13470;DHT22;6807;48.682;9.032;2022-10-16T04:02:28;13.40;99.90
13470;DHT22;6807;48.682;9.032;2022-10-16T04:04:55;13.30;99.90
13470;DHT22;6807;48.682;9.032;2022-10-16T04:07:22;13.40;99.90
13470;DHT22;6807;48.682;9.032;2022-10-16T04:09:50;13.40;99.90
13470;DHT22;6807;48.682;9.032;2022-10-16T04:12:17;13.40;99.90
13470;DHT22;6807;48.682;9.032;2022-10-16T04:14:45;13.30;99.90
13470;DHT22;6807;48.682;9.032;2022-10-16T04:17:12;13.30;99.90
13470;DHT22;6807;48.682;9.032;2022-10-16T04:19:39;13.40;99.90
13470;DHT22;6807;48.682;9.032;2022-10-16T04:22:06;13.30;99.90
13470;DHT22;6807;48.682;9.032;2022-10-16T04:24:33;13.30;99.90
13470;DHT22;6807;48.682;9.032;2022-10-16T04:26:59;13.30;99.90
13470;DHT22;6807;48.682;9.032;2022-10-16T04:29:26;13.30;99.90
13470;DHT22;6807;48.682;9.032;2022-10-16T04:31:55;13.30;99.90
13470;DHT22;6807;48.682;9.032;2022-10-16T04:34:22;13.20;99.90
13470;DHT22;6807;48.682;9.032;2022-10-16T04:36:49;13.20;99.90
13470;DHT22;6807;48.682;9.032;2022-10-16T04:39:16;13.20;99.90
13470;DHT22;6807;48.682;9.032;2022-10-16T04:41:43;13.20;99.90
13470;DHT22;6807;48.682;9.032;2022-10-16T04:44:09;13.40;99.90
13470;DHT22;6807;48.682;9.032;2022-10-16T04:46:36;13.20;99.90
13470;DHT22;6807;48.682;9.032;2022-10-16T04:49:04;13.20;99.90
13470;DHT22;6807;48.682;9.032;2022-10-16T04:51:32;13.20;99.90
13470;DHT22;6807;48.682;9.032;2022-10-16T04:53:59;13.20;99.90
13470;DHT22;6807;48.682;9.032;2022-10-16T04:56:25;13.20;99.90
13470;DHT22;6807;48.682;9.032;2022-10-16T04:58:52;13.20;99.90
13470;DHT22;6807;48.682;9.032;2022-10-16T05:01:19;13.20;99.90
13470;DHT22;6807;48.682;9.032;2022-10-16T05:03:46;13.20;99.90
13470;DHT22;6807;48.682;9.032;2022-10-16T05:06:14;13.20;99.90
13470;DHT22;6807;48.682;9.032;2022-10-16T05:08:41;13.20;99.90
13470;DHT22;6807;48.682;9.032;2022-10-16T05:11:07;13.10;99.90
13470;DHT22;6807;48.682;9.032;2022-10-16T05:13:34;13.10;99.90
13470;DHT22;6807;48.682;9.032;2022-10-16T05:16:01;13.10;99.90
13470;DHT22;6807;48.682;9.032;2022-10-16T05:18:28;13.10;99.90
13470;DHT22;6807;48.682;9.032;2022-10-16T05:20:55;13.10;99.90
13470;DHT22;6807;48.682;9.032;2022-10-16T05:23:23;13.10;99.90
13470;DHT22;6807;48.682;9.032;2022-10-16T05:25:54;13.00;99.90
13470;DHT22;6807;48.682;9.032;2022-10-16T05:28:26;13.00;99.90
13470;DHT22;6807;48.682;9.032;2022-10-16T05:30:54;13.10;99.90
13470;DHT22;6807;48.682;9.032;2022-10-16T05:33:21;12.70;99.90
13470;DHT22;6807;48.682;9.032;2022-10-16T05:35:48;12.80;99.90
13470;DHT22;6807;48.682;9.032;2022-10-16T05:38:16;12.70;99.90
13470;DHT22;6807;48.682;9.032;2022-10-16T05:40:50;12.80;99.90
13470;DHT22;6807;48.682;9.032;2022-10-16T05:43:17;12.80;99.90
13470;DHT22;6807;48.682;9.032;2022-10-16T05:45:54;12.80;99.90
13470;DHT22;6807;48.682;9.032;2022-10-16T05:48:21;12.80;99.90
13470;DHT22;6807;48.682;9.032;2022-10-16T05:50:47;12.90;99.90
13470;DHT22;6807;48.682;9.032;2022-10-16T05:53:14;12.90;99.90
13470;DHT22;6807;48.682;9.032;2022-10-16T05:55:41;12.90;99.90
13470;DHT22;6807;48.682;9.032;2022-10-16T05:58:09;13.00;99.90
13470;DHT22;6807;48.682;9.032;2022-10-16T06:01:03;13.10;99.90
13470;DHT22;6807;48.682;9.032;2022-10-16T06:03:31;13.10;99.90
13470;DHT22;6807;48.682;9.032;2022-10-16T06:05:58;13.20;99.90
13470;DHT22;6807;48.682;9.032;2022-10-16T06:08:25;13.20;99.90
13470;DHT22;6807;48.682;9.032;2022-10-16T06:11:00;13.30;99.90
13470;DHT22;6807;48.682;9.032;2022-10-16T06:13:29;13.30;99.90
13470;DHT22;6807;48.682;9.032;2022-10-16T06:15:57;13.40;99.90
13470;DHT22;6807;48.682;9.032;2022-10-16T06:18:24;13.40;99.90
13470;DHT22;6807;48.682;9.032;2022-10-16T06:20:53;13.70;99.90
13470;DHT22;6807;48.682;9.032;2022-10-16T06:23:20;13.60;99.90
13470;DHT22;6807;48.682;9.032;2022-10-16T06:25:47;13.60;99.90
13470;DHT22;6807;48.682;9.032;2022-10-16T06:28:15;13.70;99.90
13470;DHT22;6807;48.682;9.032;2022-10-16T06:30:43;13.80;99.90
13470;DHT22;6807;48.682;9.032;2022-10-16T06:34:48;14.00;99.90
13470;DHT22;6807;48.682;9.032;2022-10-16T06:36:53;14.00;99.90
13470;DHT22;6807;48.682;9.032;2022-10-16T06:39:20;14.20;99.90
13470;DHT22;6807;48.682;9.032;2022-10-16T06:41:47;14.30;99.90
13470;DHT22;6807;48.682;9.032;2022-10-16T06:44:14;14.30;99.90
13470;DHT22;6807;48.682;9.032;2022-10-16T06:46:51;14.70;99.90
13470;DHT22;6807;48.682;9.032;2022-10-16T06:49:19;14.40;99.90
13470;DHT22;6807;48.682;9.032;2022-10-16T06:51:49;14.50;99.90
13470;DHT22;6807;48.682;9.032;2022-10-16T06:54:15;14.60;99.90
13470;DHT22;6807;48.682;9.032;2022-10-16T06:56:43;14.40;99.90
13470;DHT22;6807;48.682;9.032;2022-10-16T06:59:10;14.50;99.90
13470;DHT22;6807;48.682;9.032;2022-10-16T07:01:45;14.60;99.90
13470;DHT22;6807;48.682;9.032;2022-10-16T07:04:13;14.70;99.90
13470;DHT22;6807;48.682;9.032;2022-10-16T07:06:40;14.80;99.90
13470;DHT22;6807;48.682;9.032;2022-10-16T07:09:09;15.00;99.90
13470;DHT22;6807;48.682;9.032;2022-10-16T07:11:41;15.00;99.90
13470;DHT22;6807;48.682;9.032;2022-10-16T07:14:15;15.10;99.90
13470;DHT22;6807;48.682;9.032;2022-10-16T07:16:42;15.10;99.90
13470;DHT22;6807;48.682;9.032;2022-10-16T07:19:11;15.10;99.90
13470;DHT22;6807;48.682;9.032;2022-10-16T07:21:40;15.10;99.90
13470;DHT22;6807;48.682;9.032;2022-10-16T07:24:11;15.40;99.90
13470;DHT22;6807;48.682;9.032;2022-10-16T07:26:39;15.00;99.90
13470;DHT22;6807;48.682;9.032;2022-10-16T07:29:07;15.10;99.90
13470;DHT22;6807;48.682;9.032;2022-10-16T07:31:37;15.10;99.90
13470;DHT22;6807;48.682;9.032;2022-10-16T07:34:05;15.20;99.90
13470;DHT22;6807;48.682;9.032;2022-10-16T07:36:33;15.20;99.90
13470;DHT22;6807;48.682;9.032;2022-10-16T07:39:00;15.30;99.90
13470;DHT22;6807;48.682;9.032;2022-10-16T07:41:28;15.30;99.90
13470;DHT22;6807;48.682;9.032;2022-10-16T07:43:56;15.40;99.90
13470;DHT22;6807;48.682;9.032;2022-10-16T07:46:25;15.40;99.90
13470;DHT22;6807;48.682;9.032;2022-10-16T07:48:52;15.50;99.90
13470;DHT22;6807;48.682;9.032;2022-10-16T07:51:21;15.70;99.90
13470;DHT22;6807;48.682;9.032;2022-10-16T07:53:50;15.70;99.90
13470;DHT22;6807;48.682;9.032;2022-10-16T07:56:18;15.80;99.90
13470;DHT22;6807;48.682;9.032;2022-10-16T07:58:45;15.80;99.90
13470;DHT22;6807;48.682;9.032;2022-10-16T08:01:15;15.70;99.90
13470;DHT22;6807;48.682;9.032;2022-10-16T08:03:42;15.80;99.90
13470;DHT22;6807;48.682;9.032;2022-10-16T08:06:09;16.00;99.90
13470;DHT22;6807;48.682;9.032;2022-10-16T08:08:36;16.10;99.90
13470;DHT22;6807;48.682;9.032;2022-10-16T08:14:09;16.30;99.90
13470;DHT22;6807;48.682;9.032;2022-10-16T08:16:36;16.50;99.90
13470;DHT22;6807;48.682;9.032;2022-10-16T08:19:04;16.70;99.90
13470;DHT22;6807;48.682;9.032;2022-10-16T08:21:31;17.00;99.90
13470;DHT22;6807;48.682;9.032;2022-10-16T08:23:58;17.50;99.90
13470;DHT22;6807;48.682;9.032;2022-10-16T08:26:26;17.80;99.90
13470;DHT22;6807;48.682;9.032;2022-10-16T08:28:53;18.00;99.90
13470;DHT22;6807;48.682;9.032;2022-10-16T08:31:22;18.00;99.90
13470;DHT22;6807;48.682;9.032;2022-10-16T08:33:49;17.90;99.90
13470;DHT22;6807;48.682;9.032;2022-10-16T08:36:18;17.90;99.90
13470;DHT22;6807;48.682;9.032;2022-10-16T08:38:49;17.80;99.90
13470;DHT22;6807;48.682;9.032;2022-10-16T08:41:27;17.70;99.90
13470;DHT22;6807;48.682;9.032;2022-10-16T08:44:12;17.70;99.90
13470;DHT22;6807;48.682;9.032;2022-10-16T08:46:54;17.50;99.90
13470;DHT22;6807;48.682;9.032;2022-10-16T08:49:26;17.40;99.90
13470;DHT22;6807;48.682;9.032;2022-10-16T08:51:55;17.20;99.90
13470;DHT22;6807;48.682;9.032;2022-10-16T08:54:28;17.30;99.90
13470;DHT22;6807;48.682;9.032;2022-10-16T08:56:55;17.40;99.90
13470;DHT22;6807;48.682;9.032;2022-10-16T08:59:23;17.70;99.90
13470;DHT22;6807;48.682;9.032;2022-10-16T09:01:52;18.00;99.90
13470;DHT22;6807;48.682;9.032;2022-10-16T09:04:54;17.90;99.90
13470;DHT22;6807;48.682;9.032;2022-10-16T09:07:29;18.30;99.90
13470;DHT22;6807;48.682;9.032;2022-10-16T09:10:11;19.10;99.90
13470;DHT22;6807;48.682;9.032;2022-10-16T09:12:45;19.60;99.90
13470;DHT22;6807;48.682;9.032;2022-10-16T09:15:24;20.00;99.90
13470;DHT22;6807;48.682;9.032;2022-10-16T09:18:01;20.70;99.90
13470;DHT22;6807;48.682;9.032;2022-10-16T09:20:42;21.80;99.90
13470;DHT22;6807;48.682;9.032;2022-10-16T09:23:21;24.10;99.90
13470;DHT22;6807;48.682;9.032;2022-10-16T09:25:49;26.00;99.90
13470;DHT22;6807;48.682;9.032;2022-10-16T09:28:17;26.00;99.90
13470;DHT22;6807;48.682;9.032;2022-10-16T09:30:45;26.10;99.90
13470;DHT22;6807;48.682;9.032;2022-10-16T09:33:17;26.80;99.90
13470;DHT22;6807;48.682;9.032;2022-10-16T09:35:46;25.10;99.90
13470;DHT22;6807;48.682;9.032;2022-10-16T09:38:25;24.00;99.90
13470;DHT22;6807;48.682;9.032;2022-10-16T09:40:54;22.80;99.90
13470;DHT22;6807;48.682;9.032;2022-10-16T09:43:26;22.10;99.90
13470;DHT22;6807;48.682;9.032;2022-10-16T09:45:58;23.40;99.90
13470;DHT22;6807;48.682;9.032;2022-10-16T09:48:37;23.70;99.90
13470;DHT22;6807;48.682;9.032;2022-10-16T09:51:06;24.30;99.90
13470;DHT22;6807;48.682;9.032;2022-10-16T09:53:43;24.70;99.90
13470;DHT22;6807;48.682;9.032;2022-10-16T09:56:11;24.40;99.90
13470;DHT22;6807;48.682;9.032;2022-10-16T09:58:43;24.70;99.90
13470;DHT22;6807;48.682;9.032;2022-10-16T10:01:15;24.30;99.90
13470;DHT22;6807;48.682;9.032;2022-10-16T10:03:44;24.70;99.90
13470;DHT22;6807;48.682;9.032;2022-10-16T10:06:18;25.20;99.90
13470;DHT22;6807;48.682;9.032;2022-10-16T10:08:59;25.90;99.90
13470;DHT22;6807;48.682;9.032;2022-10-16T10:11:48;27.50;99.90
13470;DHT22;6807;48.682;9.032;2022-10-16T10:14:22;29.00;99.90
13470;DHT22;6807;48.682;9.032;2022-10-16T10:19:21;27.90;99.90
13470;DHT22;6807;48.682;9.032;2022-10-16T10:21:49;26.10;99.90
13470;DHT22;6807;48.682;9.032;2022-10-16T10:24:18;24.70;99.90
13470;DHT22;6807;48.682;9.032;2022-10-16T10:26:53;24.40;99.90
13470;DHT22;6807;48.682;9.032;2022-10-16T10:29:44;24.20;1.00
13470;DHT22;6807;48.682;9.032;2022-10-16T10:32:23;24.10;99.90
13470;DHT22;6807;48.682;9.032;2022-10-16T10:35:02;23.50;1.00
13470;DHT22;6807;48.682;9.032;2022-10-16T10:37:42;23.70;99.90
13470;DHT22;6807;48.682;9.032;2022-10-16T10:40:24;24.30;99.90
13470;DHT22;6807;48.682;9.032;2022-10-16T10:43:01;24.30;1.00
13470;DHT22;6807;48.682;9.032;2022-10-16T10:45:40;24.40;99.90
13470;DHT22;6807;48.682;9.032;2022-10-16T10:48:21;24.70;99.90
13470;DHT22;6807;48.682;9.032;2022-10-16T10:50:57;25.70;1.00
13470;DHT22;6807;48.682;9.032;2022-10-16T10:53:36;25.80;1.00
13470;DHT22;6807;48.682;9.032;2022-10-16T10:56:14;25.60;99.90
13470;DHT22;6807;48.682;9.032;2022-10-16T11:01:50;26.20;99.90
13470;DHT22;6807;48.682;9.032;2022-10-16T11:04:38;28.10;99.90
13470;DHT22;6807;48.682;9.032;2022-10-16T11:07:16;28.80;1.00
13470;DHT22;6807;48.682;9.032;2022-10-16T11:09:47;27.90;1.00
13470;DHT22;6807;48.682;9.032;2022-10-16T11:12:17;26.20;1.00
13470;DHT22;6807;48.682;9.032;2022-10-16T11:14:49;25.20;1.00
13470;DHT22;6807;48.682;9.032;2022-10-16T11:17:21;20.50;1.00
13470;DHT22;6807;48.682;9.032;2022-10-16T11:19:55;25.50;99.90
13470;DHT22;6807;48.682;9.032;2022-10-16T11:22:29;26.90;1.00
13470;DHT22;6807;48.682;9.032;2022-10-16T11:25:02;28.50;1.00
13470;DHT22;6807;48.682;9.032;2022-10-16T11:27:37;26.90;1.00
13470;DHT22;6807;48.682;9.032;2022-10-16T11:30:12;25.30;67.80
13470;DHT22;6807;48.682;9.032;2022-10-16T11:32:47;26.10;1.00
13470;DHT22;6807;48.682;9.032;2022-10-16T11:35:21;26.50;1.00
13470;DHT22;6807;48.682;9.032;2022-10-16T11:37:52;26.20;1.00
13470;DHT22;6807;48.682;9.032;2022-10-16T11:40:24;26.90;1.00
13470;DHT22;6807;48.682;9.032;2022-10-16T11:42:54;28.80;1.00
13470;DHT22;6807;48.682;9.032;2022-10-16T11:45:30;29.00;1.00
13470;DHT22;6807;48.682;9.032;2022-10-16T11:48:04;29.70;99.90
13470;DHT22;6807;48.682;9.032;2022-10-16T11:53:13;30.40;99.90
13470;DHT22;6807;48.682;9.032;2022-10-16T11:55:43;31.00;1.00
13470;DHT22;6807;48.682;9.032;2022-10-16T11:58:17;30.20;1.00
13470;DHT22;6807;48.682;9.032;2022-10-16T12:00:54;30.30;1.00
13470;DHT22;6807;48.682;9.032;2022-10-16T12:03:27;28.70;1.00
13470;DHT22;6807;48.682;9.032;2022-10-16T12:06:02;26.10;1.00
13470;DHT22;6807;48.682;9.032;2022-10-16T12:08:35;25.00;1.00
13470;DHT22;6807;48.682;9.032;2022-10-16T12:11:19;24.30;1.00
13470;DHT22;6807;48.682;9.032;2022-10-16T12:13:47;24.60;1.00
13470;DHT22;6807;48.682;9.032;2022-10-16T12:16:22;24.70;1.00
13470;DHT22;6807;48.682;9.032;2022-10-16T12:21:17;24.40;1.00
13470;DHT22;6807;48.682;9.032;2022-10-16T12:23:53;25.60;1.00
13470;DHT22;6807;48.682;9.032;2022-10-16T12:26:27;25.10;1.00
13470;DHT22;6807;48.682;9.032;2022-10-16T12:28:56;25.80;1.00
13470;DHT22;6807;48.682;9.032;2022-10-16T12:31:36;25.80;1.00
13470;DHT22;6807;48.682;9.032;2022-10-16T12:34:03;26.30;1.00
13470;DHT22;6807;48.682;9.032;2022-10-16T12:36:32;27.70;1.00
13470;DHT22;6807;48.682;9.032;2022-10-16T12:39:01;27.80;1.00
13470;DHT22;6807;48.682;9.032;2022-10-16T12:41:31;28.00;1.00
13470;DHT22;6807;48.682;9.032;2022-10-16T12:43:59;25.50;1.00
13470;DHT22;6807;48.682;9.032;2022-10-16T12:46:38;24.70;1.00
13470;DHT22;6807;48.682;9.032;2022-10-16T12:49:29;24.20;1.00
13470;DHT22;6807;48.682;9.032;2022-10-16T12:54:28;23.40;1.00
13470;DHT22;6807;48.682;9.032;2022-10-16T12:57:12;23.30;1.00
13470;DHT22;6807;48.682;9.032;2022-10-16T12:59:48;20.70;1.00
13470;DHT22;6807;48.682;9.032;2022-10-16T13:02:41;23.50;1.00
13470;DHT22;6807;48.682;9.032;2022-10-16T13:05:26;23.90;1.00
13470;DHT22;6807;48.682;9.032;2022-10-16T13:08:07;23.90;1.00
13470;DHT22;6807;48.682;9.032;2022-10-16T13:10:41;24.20;1.00
13470;DHT22;6807;48.682;9.032;2022-10-16T13:13:37;24.30;1.00
13470;DHT22;6807;48.682;9.032;2022-10-16T13:16:14;24.80;1.00
13470;DHT22;6807;48.682;9.032;2022-10-16T13:18:51;24.70;1.00
13470;DHT22;6807;48.682;9.032;2022-10-16T13:21:33;27.40;1.00
13470;DHT22;6807;48.682;9.032;2022-10-16T13:24:07;24.70;1.00
13470;DHT22;6807;48.682;9.032;2022-10-16T13:26:42;25.60;1.00
13470;DHT22;6807;48.682;9.032;2022-10-16T13:29:10;26.70;1.00
13470;DHT22;6807;48.682;9.032;2022-10-16T13:31:39;27.80;1.00
13470;DHT22;6807;48.682;9.032;2022-10-16T13:34:12;27.40;99.90
13470;DHT22;6807;48.682;9.032;2022-10-16T13:36:44;27.40;1.00
13470;DHT22;6807;48.682;9.032;2022-10-16T13:39:13;25.30;1.00
13470;DHT22;6807;48.682;9.032;2022-10-16T13:41:42;26.60;1.00
13470;DHT22;6807;48.682;9.032;2022-10-16T13:44:14;26.40;1.00
13470;DHT22;6807;48.682;9.032;2022-10-16T13:46:41;25.40;1.00
13470;DHT22;6807;48.682;9.032;2022-10-16T13:49:13;24.80;1.00
13470;DHT22;6807;48.682;9.032;2022-10-16T13:51:40;24.30;1.00
13470;DHT22;6807;48.682;9.032;2022-10-16T13:54:09;23.90;1.00
13470;DHT22;6807;48.682;9.032;2022-10-16T13:56:39;23.50;1.00
13470;DHT22;6807;48.682;9.032;2022-10-16T13:59:23;23.70;1.00
13470;DHT22;6807;48.682;9.032;2022-10-16T14:01:53;23.50;1.00
13470;DHT22;6807;48.682;9.032;2022-10-16T14:04:20;23.40;1.00
13470;DHT22;6807;48.682;9.032;2022-10-16T14:06:50;23.20;1.00
13470;DHT22;6807;48.682;9.032;2022-10-16T14:09:22;23.30;1.00
13470;DHT22;6807;48.682;9.032;2022-10-16T14:11:50;23.10;1.00
13470;DHT22;6807;48.682;9.032;2022-10-16T14:14:19;23.20;1.00
13470;DHT22;6807;48.682;9.032;2022-10-16T14:16:47;22.90;1.00
13470;DHT22;6807;48.682;9.032;2022-10-16T14:19:18;22.70;1.00
13470;DHT22;6807;48.682;9.032;2022-10-16T14:21:46;22.80;1.00
13470;DHT22;6807;48.682;9.032;2022-10-16T14:24:13;22.90;1.00
13470;DHT22;6807;48.682;9.032;2022-10-16T14:26:48;22.90;1.00
13470;DHT22;6807;48.682;9.032;2022-10-16T14:29:19;23.00;1.00
13470;DHT22;6807;48.682;9.032;2022-10-16T14:31:55;23.10;1.00
13470;DHT22;6807;48.682;9.032;2022-10-16T14:34:27;23.20;1.00
13470;DHT22;6807;48.682;9.032;2022-10-16T14:36:54;23.50;1.00
13470;DHT22;6807;48.682;9.032;2022-10-16T14:39:22;24.10;1.00
13470;DHT22;6807;48.682;9.032;2022-10-16T14:41:55;25.00;1.00
13470;DHT22;6807;48.682;9.032;2022-10-16T14:44:28;25.30;1.00
13470;DHT22;6807;48.682;9.032;2022-10-16T14:46:56;25.00;1.00
13470;DHT22;6807;48.682;9.032;2022-10-16T14:49:25;24.60;1.00
13470;DHT22;6807;48.682;9.032;2022-10-16T14:51:53;24.70;1.00
13470;DHT22;6807;48.682;9.032;2022-10-16T14:54:20;24.90;1.00
13470;DHT22;6807;48.682;9.032;2022-10-16T14:56:50;25.10;1.00
13470;DHT22;6807;48.682;9.032;2022-10-16T14:59:19;25.50;1.00
13470;DHT22;6807;48.682;9.032;2022-10-16T15:01:50;25.50;1.00
13470;DHT22;6807;48.682;9.032;2022-10-16T15:04:16;25.20;1.00
13470;DHT22;6807;48.682;9.032;2022-10-16T15:06:44;24.90;1.00
13470;DHT22;6807;48.682;9.032;2022-10-16T15:09:11;24.50;1.00
13470;DHT22;6807;48.682;9.032;2022-10-16T15:11:40;24.30;1.00
13470;DHT22;6807;48.682;9.032;2022-10-16T15:14:12;24.20;1.00
13470;DHT22;6807;48.682;9.032;2022-10-16T15:19:08;24.30;1.00
13470;DHT22;6807;48.682;9.032;2022-10-16T15:21:35;24.30;1.00
13470;DHT22;6807;48.682;9.032;2022-10-16T15:24:02;24.20;1.00
13470;DHT22;6807;48.682;9.032;2022-10-16T15:26:29;24.40;1.00
13470;DHT22;6807;48.682;9.032;2022-10-16T15:28:56;24.00;1.00
13470;DHT22;6807;48.682;9.032;2022-10-16T15:31:24;23.80;1.00
13470;DHT22;6807;48.682;9.032;2022-10-16T15:33:51;22.90;1.00
13470;DHT22;6807;48.682;9.032;2022-10-16T15:36:32;22.70;1.00
13470;DHT22;6807;48.682;9.032;2022-10-16T15:39:02;22.60;1.00
13470;DHT22;6807;48.682;9.032;2022-10-16T15:41:29;22.30;1.00
13470;DHT22;6807;48.682;9.032;2022-10-16T15:43:56;21.90;1.00
13470;DHT22;6807;48.682;9.032;2022-10-16T15:46:24;21.70;1.00
13470;DHT22;6807;48.682;9.032;2022-10-16T15:48:51;21.50;1.00
13470;DHT22;6807;48.682;9.032;2022-10-16T15:51:22;21.40;1.00
13470;DHT22;6807;48.682;9.032;2022-10-16T15:53:50;21.20;1.00
13470;DHT22;6807;48.682;9.032;2022-10-16T15:56:18;20.90;1.00
13470;DHT22;6807;48.682;9.032;2022-10-16T15:58:45;20.70;1.00
13470;DHT22;6807;48.682;9.032;2022-10-16T16:01:12;20.60;99.90
13470;DHT22;6807;48.682;9.032;2022-10-16T16:03:39;20.20;99.90
13470;DHT22;6807;48.682;9.032;2022-10-16T16:06:07;20.10;99.90
13470;DHT22;6807;48.682;9.032;2022-10-16T16:08:35;19.80;99.90
13470;DHT22;6807;48.682;9.032;2022-10-16T16:11:06;19.90;99.90
13470;DHT22;6807;48.682;9.032;2022-10-16T16:20:55;18.60;99.90
13470;DHT22;6807;48.682;9.032;2022-10-16T16:23:22;18.50;99.90
13470;DHT22;6807;48.682;9.032;2022-10-16T16:26:07;18.30;99.90
13470;DHT22;6807;48.682;9.032;2022-10-16T16:28:39;18.20;99.90
13470;DHT22;6807;48.682;9.032;2022-10-16T16:31:06;18.00;99.90
13470;DHT22;6807;48.682;9.032;2022-10-16T16:33:34;17.90;99.90
13470;DHT22;6807;48.682;9.032;2022-10-16T16:36:05;17.70;99.90
13470;DHT22;6807;48.682;9.032;2022-10-16T16:38:33;17.60;99.90